sensor_id;sensor_type;location;lat;lon;timestamp;pressure;altitude;pressure_sealevel;temperature;humidity
43450;BME280;29041;42.266;23.110;2023-11-21T00:01:06;95677.44;;;1.77;100.00
43450;BME280;29041;42.266;23.110;2023-11-21T00:03:54;95672.13;;;1.82;100.00
43450;BME280;29041;42.266;23.110;2023-11-21T00:06:41;95672.94;;;1.82;100.00
43450;BME280;29041;42.266;23.110;2023-11-21T00:09:30;95669.59;;;2.37;100.00
43450;BME280;29041;42.266;23.110;2023-11-21T00:12:17;95664.94;;;2.74;100.00
43450;BME280;29041;42.266;23.110;2023-11-21T00:15:05;95670.50;;;2.06;100.00
43450;BME280;29041;42.266;23.110;2023-11-21T00:17:55;95661.53;;;1.87;100.00
43450;BME280;29041;42.266;23.110;2023-11-21T00:20:42;95683.53;;;1.82;100.00
43450;BME280;29041;42.266;23.110;2023-11-21T00:23:29;95670.28;;;1.77;100.00
43450;BME280;29041;42.266;23.110;2023-11-21T00:26:17;95673.47;;;1.74;100.00
43450;BME280;29041;42.266;23.110;2023-11-21T00:29:05;95675.06;;;1.65;100.00
43450;BME280;29041;42.266;23.110;2023-11-21T00:31:54;95676.13;;;1.64;100.00
43450;BME280;29041;42.266;23.110;2023-11-21T00:34:41;95679.84;;;1.57;100.00
43450;BME280;29041;42.266;23.110;2023-11-21T00:37:28;95682.75;;;1.51;100.00
43450;BME280;29041;42.266;23.110;2023-11-21T00:40:17;95680.63;;;1.53;100.00
43450;BME280;29041;42.266;23.110;2023-11-21T00:43:08;95686.44;;;1.50;100.00
43450;BME280;29041;42.266;23.110;2023-11-21T00:45:55;95677.75;;;1.44;100.00
43450;BME280;29041;42.266;23.110;2023-11-21T00:48:42;95700.69;;;1.95;100.00
43450;BME280;29041;42.266;23.110;2023-11-21T00:51:29;95691.09;;;2.25;100.00
43450;BME280;29041;42.266;23.110;2023-11-21T00:54:16;95710.22;;;2.01;100.00
43450;BME280;29041;42.266;23.110;2023-11-21T00:57:03;95707.53;;;2.22;100.00
43450;BME280;29041;42.266;23.110;2023-11-21T00:59:52;95709.94;;;2.18;100.00
43450;BME280;29041;42.266;23.110;2023-11-21T01:02:39;95710.28;;;1.60;100.00
43450;BME280;29041;42.266;23.110;2023-11-21T01:05:26;95696.25;;;1.60;100.00
43450;BME280;29041;42.266;23.110;2023-11-21T01:08:13;95693.59;;;1.80;100.00
43450;BME280;29041;42.266;23.110;2023-11-21T01:11:01;95692.50;;;1.76;100.00
43450;BME280;29041;42.266;23.110;2023-11-21T01:13:48;95689.63;;;1.52;100.00
43450;BME280;29041;42.266;23.110;2023-11-21T01:16:36;95677.44;;;1.35;100.00
43450;BME280;29041;42.266;23.110;2023-11-21T01:19:23;95683.28;;;1.42;100.00
43450;BME280;29041;42.266;23.110;2023-11-21T01:22:10;95677.47;;;1.61;100.00
43450;BME280;29041;42.266;23.110;2023-11-21T01:24:58;95681.41;;;1.69;100.00
43450;BME280;29041;42.266;23.110;2023-11-21T01:27:45;95678.78;;;1.74;100.00
43450;BME280;29041;42.266;23.110;2023-11-21T01:30:32;95668.19;;;1.53;100.00
43450;BME280;29041;42.266;23.110;2023-11-21T01:33:22;95676.91;;;1.74;100.00
43450;BME280;29041;42.266;23.110;2023-11-21T01:36:10;95678.25;;;1.56;100.00
43450;BME280;29041;42.266;23.110;2023-11-21T01:38:57;95672.44;;;1.44;100.00
43450;BME280;29041;42.266;23.110;2023-11-21T01:41:45;95676.41;;;1.41;100.00
43450;BME280;29041;42.266;23.110;2023-11-21T01:44:32;95661.31;;;1.26;100.00
43450;BME280;29041;42.266;23.110;2023-11-21T01:47:19;95675.09;;;1.29;100.00
43450;BME280;29041;42.266;23.110;2023-11-21T01:50:09;95685.41;;;1.25;100.00
43450;BME280;29041;42.266;23.110;2023-11-21T01:52:59;95679.31;;;1.19;100.00
43450;BME280;29041;42.266;23.110;2023-11-21T01:55:49;95675.06;;;1.03;100.00
43450;BME280;29041;42.266;23.110;2023-11-21T01:58:36;95676.63;;;0.88;100.00
43450;BME280;29041;42.266;23.110;2023-11-21T02:01:23;95668.19;;;0.91;100.00
43450;BME280;29041;42.266;23.110;2023-11-21T02:04:11;95654.16;;;0.86;100.00
43450;BME280;29041;42.266;23.110;2023-11-21T02:07:00;95650.69;;;0.80;100.00
43450;BME280;29041;42.266;23.110;2023-11-21T02:09:47;95648.06;;;0.70;100.00
43450;BME280;29041;42.266;23.110;2023-11-21T02:12:35;95635.59;;;0.55;100.00
43450;BME280;29041;42.266;23.110;2023-11-21T02:15:22;95627.94;;;0.53;100.00
43450;BME280;29041;42.266;23.110;2023-11-21T02:18:12;95646.75;;;0.77;100.00
43450;BME280;29041;42.266;23.110;2023-11-21T02:21:00;95631.69;;;0.88;100.00
43450;BME280;29041;42.266;23.110;2023-11-21T02:23:50;95634.84;;;1.01;100.00
43450;BME280;29041;42.266;23.110;2023-11-21T02:26:37;95632.75;;;0.92;100.00
43450;BME280;29041;42.266;23.110;2023-11-21T02:29:24;95644.38;;;0.86;100.00
43450;BME280;29041;42.266;23.110;2023-11-21T02:32:13;95640.44;;;0.89;100.00
43450;BME280;29041;42.266;23.110;2023-11-21T02:35:03;95651.28;;;1.44;100.00
43450;BME280;29041;42.266;23.110;2023-11-21T02:37:53;95644.66;;;1.00;100.00
43450;BME280;29041;42.266;23.110;2023-11-21T02:40:42;95647.81;;;0.97;100.00
43450;BME280;29041;42.266;23.110;2023-11-21T02:43:29;95638.28;;;0.86;100.00
43450;BME280;29041;42.266;23.110;2023-11-21T02:46:16;95661.56;;;0.94;100.00
43450;BME280;29041;42.266;23.110;2023-11-21T02:49:04;95646.75;;;0.88;100.00
43450;BME280;29041;42.266;23.110;2023-11-21T02:51:51;95651.75;;;0.69;100.00
43450;BME280;29041;42.266;23.110;2023-11-21T02:54:40;95641.22;;;0.89;100.00
43450;BME280;29041;42.266;23.110;2023-11-21T02:57:28;95629.28;;;0.76;100.00
43450;BME280;29041;42.266;23.110;2023-11-21T03:00:16;95641.69;;;0.60;100.00
43450;BME280;29041;42.266;23.110;2023-11-21T03:03:04;95636.13;;;0.52;100.00
43450;BME280;29041;42.266;23.110;2023-11-21T03:05:51;95631.63;;;0.57;100.00
43450;BME280;29041;42.266;23.110;2023-11-21T03:08:38;95621.59;;;0.65;100.00
43450;BME280;29041;42.266;23.110;2023-11-21T03:11:25;95625.59;;;0.77;100.00
43450;BME280;29041;42.266;23.110;2023-11-21T03:14:13;95624.53;;;0.73;100.00
43450;BME280;29041;42.266;23.110;2023-11-21T03:17:01;95636.16;;;0.83;100.00
43450;BME280;29041;42.266;23.110;2023-11-21T03:19:50;95641.78;;;1.22;100.00
43450;BME280;29041;42.266;23.110;2023-11-21T03:22:38;95651.00;;;1.04;100.00
43450;BME280;29041;42.266;23.110;2023-11-21T03:25:25;95648.34;;;1.20;100.00
43450;BME280;29041;42.266;23.110;2023-11-21T03:28:12;95650.22;;;1.45;100.00
43450;BME280;29041;42.266;23.110;2023-11-21T03:31:01;95640.94;;;1.06;100.00
43450;BME280;29041;42.266;23.110;2023-11-21T03:33:48;95640.41;;;0.99;100.00
43450;BME280;29041;42.266;23.110;2023-11-21T03:36:35;95642.81;;;1.16;100.00
43450;BME280;29041;42.266;23.110;2023-11-21T03:39:22;95636.19;;;1.08;100.00
43450;BME280;29041;42.266;23.110;2023-11-21T03:42:11;95638.28;;;0.86;100.00
43450;BME280;29041;42.266;23.110;2023-11-21T03:44:58;95646.47;;;0.79;100.00
43450;BME280;29041;42.266;23.110;2023-11-21T03:47:46;95642.00;;;0.85;100.00
43450;BME280;29041;42.266;23.110;2023-11-21T03:50:34;95640.41;;;0.84;100.00
43450;BME280;29041;42.266;23.110;2023-11-21T03:53:21;95633.28;;;0.84;100.00
43450;BME280;29041;42.266;23.110;2023-11-21T03:56:09;95639.38;;;0.95;100.00
43450;BME280;29041;42.266;23.110;2023-11-21T03:58:56;95648.09;;;1.06;100.00
43450;BME280;29041;42.266;23.110;2023-11-21T04:01:44;95641.19;;;0.94;100.00
43450;BME280;29041;42.266;23.110;2023-11-21T04:04:32;95635.13;;;0.84;100.00
43450;BME280;29041;42.266;23.110;2023-11-21T04:07:19;95635.13;;;0.73;100.00
43450;BME280;29041;42.266;23.110;2023-11-21T04:10:08;95635.94;;;0.84;100.00
43450;BME280;29041;42.266;23.110;2023-11-21T04:12:58;95630.13;;;1.29;100.00
43450;BME280;29041;42.266;23.110;2023-11-21T04:15:46;95638.84;;;1.19;100.00
43450;BME280;29041;42.266;23.110;2023-11-21T04:18:33;95629.59;;;0.85;100.00
43450;BME280;29041;42.266;23.110;2023-11-21T04:21:22;95630.88;;;0.72;100.00
43450;BME280;29041;42.266;23.110;2023-11-21T04:24:10;95619.50;;;0.72;100.00
43450;BME280;29041;42.266;23.110;2023-11-21T04:26:57;95625.31;;;0.69;100.00
43450;BME280;29041;42.266;23.110;2023-11-21T04:29:44;95614.75;;;0.74;100.00
43450;BME280;29041;42.266;23.110;2023-11-21T04:32:31;95617.13;;;0.65;100.00
43450;BME280;29041;42.266;23.110;2023-11-21T04:35:19;95611.84;;;0.70;100.00
43450;BME280;29041;42.266;23.110;2023-11-21T04:38:07;95617.13;;;0.75;100.00
43450;BME280;29041;42.266;23.110;2023-11-21T04:40:59;95615.25;;;0.60;100.00
43450;BME280;29041;42.266;23.110;2023-11-21T04:43:46;95629.31;;;1.13;100.00
43450;BME280;29041;42.266;23.110;2023-11-21T04:46:33;95624.56;;;1.15;100.00
43450;BME280;29041;42.266;23.110;2023-11-21T04:49:20;95633.03;;;0.96;100.00
43450;BME280;29041;42.266;23.110;2023-11-21T04:52:08;95622.41;;;0.70;100.00
43450;BME280;29041;42.266;23.110;2023-11-21T04:54:57;95633.78;;;0.81;100.00
43450;BME280;29041;42.266;23.110;2023-11-21T04:57:46;95638.84;;;1.03;100.00
43450;BME280;29041;42.266;23.110;2023-11-21T05:00:34;95632.78;;;1.08;100.00
43450;BME280;29041;42.266;23.110;2023-11-21T05:03:22;95637.00;;;0.99;100.00
43450;BME280;29041;42.266;23.110;2023-11-21T05:06:10;95634.31;;;0.88;100.00
43450;BME280;29041;42.266;23.110;2023-11-21T05:08:57;95643.06;;;0.99;100.00
43450;BME280;29041;42.266;23.110;2023-11-21T05:11:46;95645.16;;;0.92;100.00
43450;BME280;29041;42.266;23.110;2023-11-21T05:14:33;95634.88;;;1.32;100.00
43450;BME280;29041;42.266;23.110;2023-11-21T05:17:20;95635.41;;;0.98;100.00
43450;BME280;29041;42.266;23.110;2023-11-21T05:20:08;95629.56;;;0.95;100.00
43450;BME280;29041;42.266;23.110;2023-11-21T05:22:56;95620.84;;;0.85;100.00
43450;BME280;29041;42.266;23.110;2023-11-21T05:25:44;95632.50;;;1.20;100.00
43450;BME280;29041;42.266;23.110;2023-11-21T05:28:33;95627.22;;;1.15;100.00
43450;BME280;29041;42.266;23.110;2023-11-21T05:31:20;95631.66;;;0.73;100.00
43450;BME280;29041;42.266;23.110;2023-11-21T05:34:07;95636.44;;;0.86;100.00
43450;BME280;29041;42.266;23.110;2023-11-21T05:36:54;95639.06;;;0.76;100.00
43450;BME280;29041;42.266;23.110;2023-11-21T05:39:44;95640.38;;;0.68;100.00
43450;BME280;29041;42.266;23.110;2023-11-21T05:42:31;95637.50;;;0.70;100.00
43450;BME280;29041;42.266;23.110;2023-11-21T05:45:20;95640.41;;;0.84;100.00
43450;BME280;29041;42.266;23.110;2023-11-21T05:48:07;95642.25;;;0.88;100.00
43450;BME280;29041;42.266;23.110;2023-11-21T05:50:54;95654.16;;;0.86;100.00
43450;BME280;29041;42.266;23.110;2023-11-21T05:53:41;95650.72;;;0.95;100.00
43450;BME280;29041;42.266;23.110;2023-11-21T05:56:28;95646.75;;;0.88;100.00
43450;BME280;29041;42.266;23.110;2023-11-21T05:59:15;95659.22;;;1.13;100.00
43450;BME280;29041;42.266;23.110;2023-11-21T06:02:04;95657.09;;;1.05;100.00
43450;BME280;29041;42.266;23.110;2023-11-21T06:04:51;95653.66;;;1.20;100.00
43450;BME280;29041;42.266;23.110;2023-11-21T06:07:38;95650.75;;;1.21;100.00
43450;BME280;29041;42.266;23.110;2023-11-21T06:10:26;95659.19;;;1.23;100.00
43450;BME280;29041;42.266;23.110;2023-11-21T06:13:13;95655.50;;;1.24;100.00
43450;BME280;29041;42.266;23.110;2023-11-21T06:16:01;95663.47;;;1.30;100.00
43450;BME280;29041;42.266;23.110;2023-11-21T06:18:50;95655.50;;;1.19;100.00
43450;BME280;29041;42.266;23.110;2023-11-21T06:21:37;95663.44;;;1.35;100.00
43450;BME280;29041;42.266;23.110;2023-11-21T06:24:24;95666.34;;;1.23;100.00
43450;BME280;29041;42.266;23.110;2023-11-21T06:27:11;95663.44;;;1.09;100.00
43450;BME280;29041;42.266;23.110;2023-11-21T06:29:59;95660.78;;;1.19;100.00
43450;BME280;29041;42.266;23.110;2023-11-21T06:32:46;95664.50;;;1.29;100.00
43450;BME280;29041;42.266;23.110;2023-11-21T06:35:35;95657.91;;;1.41;100.00
43450;BME280;29041;42.266;23.110;2023-11-21T06:38:22;95675.88;;;1.45;100.00
43450;BME280;29041;42.266;23.110;2023-11-21T06:41:09;95684.06;;;1.64;100.00
43450;BME280;29041;42.266;23.110;2023-11-21T06:43:56;95673.75;;;1.67;100.00
43450;BME280;29041;42.266;23.110;2023-11-21T06:46:44;95682.69;;;1.97;100.00
43450;BME280;29041;42.266;23.110;2023-11-21T06:49:31;95674.97;;;2.06;100.00
43450;BME280;29041;42.266;23.110;2023-11-21T06:52:20;95673.41;;;2.00;100.00
43450;BME280;29041;42.266;23.110;2023-11-21T06:55:07;95668.34;;;2.14;100.00
43450;BME280;29041;42.266;23.110;2023-11-21T06:57:55;95665.38;;;2.31;100.00
43450;BME280;29041;42.266;23.110;2023-11-21T07:00:43;95669.16;;;2.69;100.00
43450;BME280;29041;42.266;23.110;2023-11-21T07:03:32;95665.84;;;3.33;100.00
43450;BME280;29041;42.266;23.110;2023-11-21T07:06:19;95671.59;;;3.75;100.00
43450;BME280;29041;42.266;23.110;2023-11-21T07:09:14;95664.66;;;4.52;100.00
43450;BME280;29041;42.266;23.110;2023-11-21T07:12:01;95675.06;;;5.11;100.00
43450;BME280;29041;42.266;23.110;2023-11-21T07:14:49;95678.72;;;5.34;100.00
43450;BME280;29041;42.266;23.110;2023-11-21T07:17:36;95677.38;;;4.98;100.00
43450;BME280;29041;42.266;23.110;2023-11-21T07:20:24;95684.53;;;4.11;100.00
43450;BME280;29041;42.266;23.110;2023-11-21T07:23:11;95697.00;;;4.83;100.00
43450;BME280;29041;42.266;23.110;2023-11-21T07:25:59;95692.47;;;3.57;100.00
43450;BME280;29041;42.266;23.110;2023-11-21T07:28:46;95686.16;;;3.13;100.00
43450;BME280;29041;42.266;23.110;2023-11-21T07:31:34;95689.72;;;3.33;100.00
43450;BME280;29041;42.266;23.110;2023-11-21T07:34:21;95673.19;;;3.12;100.00
43450;BME280;29041;42.266;23.110;2023-11-21T07:37:08;95681.72;;;2.98;100.00
43450;BME280;29041;42.266;23.110;2023-11-21T07:39:55;95686.06;;;3.29;100.00
43450;BME280;29041;42.266;23.110;2023-11-21T07:42:44;95689.31;;;3.85;100.00
43450;BME280;29041;42.266;23.110;2023-11-21T07:45:31;95690.44;;;3.78;100.00
43450;BME280;29041;42.266;23.110;2023-11-21T07:48:18;95686.13;;;4.12;100.00
43450;BME280;29041;42.266;23.110;2023-11-21T07:51:06;95683.13;;;4.19;100.00
43450;BME280;29041;42.266;23.110;2023-11-21T07:53:54;95686.19;;;4.74;100.00
43450;BME280;29041;42.266;23.110;2023-11-21T07:56:41;95686.72;;;5.15;100.00
43450;BME280;29041;42.266;23.110;2023-11-21T07:59:29;95697.38;;;5.34;100.00
43450;BME280;29041;42.266;23.110;2023-11-21T08:02:16;95687.09;;;5.60;100.00
43450;BME280;29041;42.266;23.110;2023-11-21T08:05:04;95686.19;;;5.51;100.00
43450;BME280;29041;42.266;23.110;2023-11-21T08:07:52;95690.41;;;5.71;100.00
43450;BME280;29041;42.266;23.110;2023-11-21T08:10:39;95678.31;;;5.60;100.00
43450;BME280;29041;42.266;23.110;2023-11-21T08:13:28;95678.75;;;5.48;100.00
43450;BME280;29041;42.266;23.110;2023-11-21T08:16:17;95668.09;;;5.34;100.00
43450;BME280;29041;42.266;23.110;2023-11-21T08:19:04;95677.06;;;5.38;100.00
43450;BME280;29041;42.266;23.110;2023-11-21T08:21:51;95675.41;;;6.08;100.00
43450;BME280;29041;42.266;23.110;2023-11-21T08:24:40;95674.56;;;6.91;100.00
43450;BME280;29041;42.266;23.110;2023-11-21T08:27:27;95669.88;;;6.46;100.00
43450;BME280;29041;42.266;23.110;2023-11-21T08:30:14;95664.63;;;5.66;100.00
43450;BME280;29041;42.266;23.110;2023-11-21T08:33:04;95663.91;;;5.94;100.00
43450;BME280;29041;42.266;23.110;2023-11-21T08:35:51;95666.56;;;5.61;100.00
43450;BME280;29041;42.266;23.110;2023-11-21T08:38:38;95667.97;;;6.05;100.00
43450;BME280;29041;42.266;23.110;2023-11-21T08:41:26;95672.50;;;6.74;100.00
43450;BME280;29041;42.266;23.110;2023-11-21T08:44:13;95667.53;;;6.95;100.00
43450;BME280;29041;42.266;23.110;2023-11-21T08:47:02;95664.72;;;7.14;100.00
43450;BME280;29041;42.266;23.110;2023-11-21T08:49:52;95662.41;;;6.85;100.00
43450;BME280;29041;42.266;23.110;2023-11-21T08:52:39;95648.91;;;7.04;100.00
43450;BME280;29041;42.266;23.110;2023-11-21T08:55:26;95623.81;;;6.69;100.00
43450;BME280;29041;42.266;23.110;2023-11-21T08:58:14;95628.63;;;7.40;100.00
43450;BME280;29041;42.266;23.110;2023-11-21T09:01:01;95608.56;;;7.28;100.00
43450;BME280;29041;42.266;23.110;2023-11-21T09:03:48;95598.38;;;7.85;100.00
43450;BME280;29041;42.266;23.110;2023-11-21T09:06:38;95582.41;;;8.02;100.00
43450;BME280;29041;42.266;23.110;2023-11-21T09:09:30;95568.13;;;8.16;100.00
43450;BME280;29041;42.266;23.110;2023-11-21T09:12:17;95547.44;;;7.90;100.00
43450;BME280;29041;42.266;23.110;2023-11-21T09:15:06;95525.72;;;9.02;100.00
43450;BME280;29041;42.266;23.110;2023-11-21T09:17:55;95514.34;;;8.26;100.00
43450;BME280;29041;42.266;23.110;2023-11-21T09:20:42;95508.09;;;8.83;100.00
43450;BME280;29041;42.266;23.110;2023-11-21T09:23:31;95506.78;;;9.25;100.00
43450;BME280;29041;42.266;23.110;2023-11-21T09:26:18;95509.09;;;9.44;100.00
43450;BME280;29041;42.266;23.110;2023-11-21T09:29:05;95505.44;;;9.48;100.00
43450;BME280;29041;42.266;23.110;2023-11-21T09:31:54;95494.16;;;9.73;100.00
43450;BME280;29041;42.266;23.110;2023-11-21T09:34:44;95492.56;;;9.72;100.00
43450;BME280;29041;42.266;23.110;2023-11-21T09:37:32;95477.56;;;9.41;100.00
43450;BME280;29041;42.266;23.110;2023-11-21T09:40:31;95462.59;;;8.57;100.00
43450;BME280;29041;42.266;23.110;2023-11-21T09:43:19;95464.19;;;8.67;100.00
43450;BME280;29041;42.266;23.110;2023-11-21T09:46:08;95456.63;;;8.25;100.00
43450;BME280;29041;42.266;23.110;2023-11-21T09:49:00;95472.13;;;7.88;100.00
43450;BME280;29041;42.266;23.110;2023-11-21T09:51:53;95463.97;;;8.02;100.00
43450;BME280;29041;42.266;23.110;2023-11-21T09:54:42;95465.19;;;7.78;100.00
43450;BME280;29041;42.266;23.110;2023-11-21T09:57:31;95469.72;;;7.28;100.00
43450;BME280;29041;42.266;23.110;2023-11-21T10:00:19;95466.59;;;7.04;100.00
43450;BME280;29041;42.266;23.110;2023-11-21T10:03:09;95461.09;;;7.00;100.00
43450;BME280;29041;42.266;23.110;2023-11-21T10:05:56;95441.09;;;6.89;100.00
43450;BME280;29041;42.266;23.110;2023-11-21T10:08:46;95451.78;;;6.89;100.00
43450;BME280;29041;42.266;23.110;2023-11-21T10:11:33;95446.97;;;6.68;100.00
43450;BME280;29041;42.266;23.110;2023-11-21T10:14:24;95446.03;;;6.73;100.00
43450;BME280;29041;42.266;23.110;2023-11-21T10:17:15;95436.44;;;6.94;100.00
43450;BME280;29041;42.266;23.110;2023-11-21T10:20:05;95437.84;;;6.24;100.00
43450;BME280;29041;42.266;23.110;2023-11-21T10:22:57;95425.13;;;6.43;100.00
43450;BME280;29041;42.266;23.110;2023-11-21T10:25:44;95427.66;;;6.71;100.00
43450;BME280;29041;42.266;23.110;2023-11-21T10:28:35;95423.47;;;7.10;100.00
43450;BME280;29041;42.266;23.110;2023-11-21T10:31:25;95422.06;;;6.81;100.00
43450;BME280;29041;42.266;23.110;2023-11-21T10:34:15;95418.75;;;7.07;100.00
43450;BME280;29041;42.266;23.110;2023-11-21T10:37:11;95414.97;;;6.77;100.00
43450;BME280;29041;42.266;23.110;2023-11-21T10:39:58;95404.06;;;7.27;100.00
43450;BME280;29041;42.266;23.110;2023-11-21T10:42:46;95371.84;;;7.24;100.00
43450;BME280;29041;42.266;23.110;2023-11-21T10:45:33;95425.53;;;7.13;100.00
43450;BME280;29041;42.266;23.110;2023-11-21T10:48:22;95412.81;;;7.19;100.00
43450;BME280;29041;42.266;23.110;2023-11-21T10:51:09;95425.94;;;7.38;100.00
43450;BME280;29041;42.266;23.110;2023-11-21T10:53:56;95423.75;;;7.49;100.00
43450;BME280;29041;42.266;23.110;2023-11-21T10:56:46;95437.50;;;7.65;100.00
43450;BME280;29041;42.266;23.110;2023-11-21T10:59:36;95437.91;;;7.09;100.00
43450;BME280;29041;42.266;23.110;2023-11-21T11:02:24;95424.56;;;7.09;100.00
43450;BME280;29041;42.266;23.110;2023-11-21T11:05:15;95424.28;;;7.11;100.00
43450;BME280;29041;42.266;23.110;2023-11-21T11:08:07;95399.84;;;7.35;100.00
43450;BME280;29041;42.266;23.110;2023-11-21T11:10:55;95376.50;;;7.67;100.00
43450;BME280;29041;42.266;23.110;2023-11-21T11:13:44;95381.50;;;7.02;100.00
43450;BME280;29041;42.266;23.110;2023-11-21T11:16:32;95377.94;;;7.15;100.00
43450;BME280;29041;42.266;23.110;2023-11-21T11:19:20;95355.56;;;6.94;100.00
43450;BME280;29041;42.266;23.110;2023-11-21T11:22:24;95351.53;;;7.05;100.00
43450;BME280;29041;42.266;23.110;2023-11-21T11:25:33;95364.88;;;7.54;100.00
43450;BME280;29041;42.266;23.110;2023-11-21T11:28:27;95363.47;;;7.66;100.00
43450;BME280;29041;42.266;23.110;2023-11-21T11:31:27;95361.25;;;8.55;100.00
43450;BME280;29041;42.266;23.110;2023-11-21T11:34:24;95379.50;;;8.27;100.00
43450;BME280;29041;42.266;23.110;2023-11-21T11:37:15;95355.63;;;7.96;100.00
43450;BME280;29041;42.266;23.110;2023-11-21T11:40:05;95348.88;;;8.07;100.00
43450;BME280;29041;42.266;23.110;2023-11-21T11:42:56;95333.75;;;8.20;100.00
43450;BME280;29041;42.266;23.110;2023-11-21T11:45:44;95355.63;;;8.04;100.00
43450;BME280;29041;42.266;23.110;2023-11-21T11:48:38;95359.41;;;8.03;100.00
43450;BME280;29041;42.266;23.110;2023-11-21T11:51:25;95330.78;;;7.77;100.00
43450;BME280;29041;42.266;23.110;2023-11-21T11:54:14;95324.34;;;7.87;100.00
43450;BME280;29041;42.266;23.110;2023-11-21T11:57:03;95325.13;;;7.88;100.00
43450;BME280;29041;42.266;23.110;2023-11-21T12:00:09;95298.06;;;7.98;100.00
43450;BME280;29041;42.266;23.110;2023-11-21T12:03:00;95299.63;;;8.08;100.00
43450;BME280;29041;42.266;23.110;2023-11-21T12:05:47;95312.69;;;8.09;100.00
43450;BME280;29041;42.266;23.110;2023-11-21T12:08:38;95294.13;;;8.13;100.00
43450;BME280;29041;42.266;23.110;2023-11-21T12:11:32;95294.38;;;8.38;100.00
43450;BME280;29041;42.266;23.110;2023-11-21T12:14:21;95290.97;;;8.11;100.00
43450;BME280;29041;42.266;23.110;2023-11-21T12:17:09;95293.28;;;8.39;100.00
43450;BME280;29041;42.266;23.110;2023-11-21T12:20:06;95271.63;;;8.23;100.00
43450;BME280;29041;42.266;23.110;2023-11-21T12:23:00;95276.34;;;8.26;100.00
43450;BME280;29041;42.266;23.110;2023-11-21T12:25:47;95280.13;;;8.72;100.00
43450;BME280;29041;42.266;23.110;2023-11-21T12:28:35;95281.66;;;8.91;100.00
43450;BME280;29041;42.266;23.110;2023-11-21T12:31:22;95270.28;;;8.94;100.00
43450;BME280;29041;42.266;23.110;2023-11-21T12:34:10;95271.69;;;9.00;100.00
43450;BME280;29041;42.266;23.110;2023-11-21T12:36:59;95276.34;;;8.82;100.00
43450;BME280;29041;42.266;23.110;2023-11-21T12:39:46;95268.28;;;9.12;100.00
43450;BME280;29041;42.266;23.110;2023-11-21T12:42:35;95266.75;;;9.02;100.00
43450;BME280;29041;42.266;23.110;2023-11-21T12:45:25;95270.03;;;9.38;100.00
43450;BME280;29041;42.266;23.110;2023-11-21T12:48:13;95264.53;;;9.34;100.00
43450;BME280;29041;42.266;23.110;2023-11-21T12:51:01;95252.69;;;8.84;100.00
43450;BME280;29041;42.266;23.110;2023-11-21T12:53:49;95256.84;;;9.03;100.00
43450;BME280;29041;42.266;23.110;2023-11-21T12:56:38;95254.63;;;9.05;100.00
43450;BME280;29041;42.266;23.110;2023-11-21T12:59:25;95257.78;;;9.07;100.00
43450;BME280;29041;42.266;23.110;2023-11-21T13:02:14;95254.06;;;8.91;100.00
43450;BME280;29041;42.266;23.110;2023-11-21T13:05:01;95244.22;;;8.82;100.00
43450;BME280;29041;42.266;23.110;2023-11-21T13:07:52;95236.59;;;8.63;100.00
43450;BME280;29041;42.266;23.110;2023-11-21T13:10:43;95230.84;;;8.73;100.00
43450;BME280;29041;42.266;23.110;2023-11-21T13:13:32;95225.00;;;8.50;100.00
43450;BME280;29041;42.266;23.110;2023-11-21T13:16:19;95232.78;;;8.64;100.00
43450;BME280;29041;42.266;23.110;2023-11-21T13:19:08;95229.19;;;8.60;100.00
43450;BME280;29041;42.266;23.110;2023-11-21T13:21:56;95231.53;;;8.70;100.00
43450;BME280;29041;42.266;23.110;2023-11-21T13:24:44;95236.81;;;8.79;100.00
43450;BME280;29041;42.266;23.110;2023-11-21T13:27:31;95231.34;;;8.76;100.00
43450;BME280;29041;42.266;23.110;2023-11-21T13:30:20;95234.97;;;8.71;100.00
43450;BME280;29041;42.266;23.110;2023-11-21T13:33:12;95228.44;;;8.51;100.00
43450;BME280;29041;42.266;23.110;2023-11-21T13:36:08;95227.50;;;8.38;100.00
43450;BME280;29041;42.266;23.110;2023-11-21T13:38:56;95240.25;;;8.50;100.00
43450;BME280;29041;42.266;23.110;2023-11-21T13:41:44;95230.31;;;8.41;100.00
43450;BME280;29041;42.266;23.110;2023-11-21T13:44:33;95237.97;;;8.13;100.00
43450;BME280;29041;42.266;23.110;2023-11-21T13:47:24;95237.94;;;8.22;100.00
43450;BME280;29041;42.266;23.110;2023-11-21T13:50:25;95246.44;;;8.24;100.00
43450;BME280;29041;42.266;23.110;2023-11-21T13:53:19;95245.47;;;8.37;100.00
43450;BME280;29041;42.266;23.110;2023-11-21T13:56:08;95239.94;;;8.51;100.00
43450;BME280;29041;42.266;23.110;2023-11-21T13:58:56;95247.16;;;8.60;100.00
43450;BME280;29041;42.266;23.110;2023-11-21T14:01:50;95241.38;;;8.49;100.00
43450;BME280;29041;42.266;23.110;2023-11-21T14:04:45;95232.44;;;8.27;100.00
43450;BME280;29041;42.266;23.110;2023-11-21T14:07:40;95238.59;;;8.19;100.00
43450;BME280;29041;42.266;23.110;2023-11-21T14:10:35;95243.91;;;8.28;100.00
43450;BME280;29041;42.266;23.110;2023-11-21T14:13:28;95236.22;;;8.17;100.00
43450;BME280;29041;42.266;23.110;2023-11-21T14:16:15;95235.38;;;8.34;100.00
43450;BME280;29041;42.266;23.110;2023-11-21T14:19:03;95238.53;;;8.36;100.00
43450;BME280;29041;42.266;23.110;2023-11-21T14:22:01;95235.69;;;8.41;100.00
43450;BME280;29041;42.266;23.110;2023-11-21T14:24:48;95220.44;;;8.42;100.00
43450;BME280;29041;42.266;23.110;2023-11-21T14:27:39;95224.59;;;8.22;100.00
43450;BME280;29041;42.266;23.110;2023-11-21T14:30:27;95222.00;;;8.43;100.00
43450;BME280;29041;42.266;23.110;2023-11-21T14:33:15;95214.31;;;8.33;100.00
43450;BME280;29041;42.266;23.110;2023-11-21T14:36:03;95222.28;;;8.12;100.00
43450;BME280;29041;42.266;23.110;2023-11-21T14:38:50;95201.50;;;8.08;100.00
43450;BME280;29041;42.266;23.110;2023-11-21T14:41:37;95203.72;;;8.06;100.00